Time;durP1;ratioP1;P1;durP2;ratioP2;P2;SDS_P1;SDS_P2;PMS_P1;PMS_P2;Temp;Humidity;BMP_temperature;BMP_pressure;BME280_temperature;BME280_humidity;BME280_pressure;Samples;Min_cycle;Max_cycle;Signal;HPM_P1;HPM_P2
2022/05/12 00:00:20;;;;;;;;;1.00;0.50;;;;;13.78;65.28;101294.78;5030070;28;9601;-65
2022/05/12 00:02:47;;;;;;;;;1.00;1.00;;;;;13.77;65.79;101301.22;5030129;28;9589;-65
2022/05/12 00:05:14;;;;;;;;;0.33;0.33;;;;;13.76;65.78;101306.81;5029668;28;9513;-65
2022/05/12 00:07:41;;;;;;;;;1.00;0.00;;;;;13.73;65.78;101308.09;5030148;28;9455;-64
2022/05/12 00:10:08;;;;;;;;;1.00;0.00;;;;;13.74;65.41;101309.75;5031432;28;9625;-64
2022/05/12 00:12:36;;;;;;;;;2.33;0.67;;;;;13.77;65.77;101317.47;5031419;28;9520;-64
2022/05/12 00:15:06;;;;;;;;;0.50;0.00;;;;;13.76;65.65;101323.88;5033013;28;9544;-64
2022/05/12 00:17:33;;;;;;;;;0.00;0.00;;;;;13.75;65.57;101324.94;5029464;28;9668;-64
2022/05/12 00:20:00;;;;;;;;;0.00;0.00;;;;;13.75;65.60;101324.94;5029101;28;9451;-65
2022/05/12 00:22:27;;;;;;;;;0.00;0.00;;;;;13.76;65.63;101326.59;5037290;28;10407;-63
2022/05/12 00:24:53;;;;;;;;;0.00;0.00;;;;;13.74;65.72;101334.09;5050102;28;9515;-64
2022/05/12 00:27:19;;;;;;;;;0.25;0.25;;;;;13.71;65.72;101334.50;5047067;28;9601;-62
2022/05/12 00:29:46;;;;;;;;;0.00;0.00;;;;;13.69;65.90;101341.97;5025601;28;9551;-64
2022/05/12 00:32:12;;;;;;;;;1.00;1.00;;;;;13.67;65.77;101346.75;5022932;28;9592;-64
2022/05/12 00:34:39;;;;;;;;;1.50;0.25;;;;;13.66;66.00;101355.91;5021071;28;9698;-65
2022/05/12 00:37:06;;;;;;;;;0.00;0.00;;;;;13.66;65.94;101353.22;5035394;28;9593;-65
2022/05/12 00:39:32;;;;;;;;;0.75;0.00;;;;;13.65;65.87;101358.81;5032887;28;10348;-64
2022/05/12 00:41:58;;;;;;;;;0.00;0.00;;;;;13.63;66.09;101358.19;5038116;28;9677;-65
2022/05/12 00:44:25;;;;;;;;;0.75;0.75;;;;;13.59;66.26;101360.47;5043361;28;9505;-64
2022/05/12 00:46:53;;;;;;;;;3.00;1.00;;;;;13.57;66.17;101363.38;5022714;28;9680;-64
2022/05/12 00:49:22;;;;;;;;;0.00;0.00;;;;;13.56;66.38;101358.97;5033302;28;9473;-64
2022/05/12 00:52:06;;;;;;;;;1.00;1.00;;;;;13.56;66.10;101364.38;5031472;28;9558;-65
2022/05/12 00:54:41;;;;;;;;;2.50;1.25;;;;;13.53;66.28;101367.53;5043248;28;9520;-65
2022/05/12 00:57:10;;;;;;;;;0.25;0.25;;;;;13.50;66.40;101372.50;5039893;28;9816;-64
2022/05/12 00:59:37;;;;;;;;;1.00;1.00;;;;;13.46;66.45;101366.66;5032993;28;10351;-64
2022/05/12 01:02:10;;;;;;;;;0.25;0.00;;;;;13.43;66.18;101368.91;5033392;28;10187;-65
2022/05/12 01:04:38;;;;;;;;;1.25;1.25;;;;;13.42;66.64;101365.38;5032795;28;9639;-65
2022/05/12 01:07:05;;;;;;;;;1.00;0.00;;;;;13.41;66.42;101379.06;5040242;28;9703;-65
2022/05/12 01:09:32;;;;;;;;;0.25;0.25;;;;;13.38;66.76;101372.22;5034428;28;9591;-64
2022/05/12 01:11:59;;;;;;;;;1.50;1.50;;;;;13.37;66.72;101373.25;5032534;28;9747;-65
2022/05/12 01:14:26;;;;;;;;;1.00;1.00;;;;;13.36;66.83;101379.69;5031804;28;9651;-65
2022/05/12 01:16:55;;;;;;;;;2.75;1.00;;;;;13.33;66.84;101380.09;5033273;28;10546;-65
2022/05/12 01:19:25;;;;;;;;;1.00;1.00;;;;;13.33;66.85;101380.94;5041336;28;9661;-65
2022/05/12 01:21:52;;;;;;;;;2.00;1.00;;;;;13.31;66.71;101391.09;5037576;28;9673;-65
2022/05/12 01:24:22;;;;;;;;;0.00;0.00;;;;;13.30;66.98;101385.91;5055690;28;10278;-65
2022/05/12 01:26:48;;;;;;;;;1.75;1.00;;;;;13.30;66.71;101396.72;5031995;28;9694;-65
2022/05/12 01:29:15;;;;;;;;;1.25;0.25;;;;;13.27;66.91;101391.69;5031484;28;10317;-65
2022/05/12 01:31:42;;;;;;;;;1.00;1.00;;;;;13.26;67.17;101393.56;5032347;28;9661;-65
2022/05/12 01:34:11;;;;;;;;;0.00;0.00;;;;;13.25;67.13;101394.59;5038782;28;9688;-64
2022/05/12 01:36:38;;;;;;;;;1.50;1.50;;;;;13.23;67.01;101399.38;5034610;28;10429;-65
2022/05/12 01:39:07;;;;;;;;;2.00;1.00;;;;;13.23;67.10;101396.66;5031607;28;9731;-64
2022/05/12 01:41:34;;;;;;;;;1.00;1.00;;;;;13.23;67.33;101404.78;5032207;28;9752;-65
2022/05/12 01:44:02;;;;;;;;;1.00;1.00;;;;;13.24;67.30;101402.91;5016958;28;9754;-64
2022/05/12 01:46:28;;;;;;;;;0.00;0.00;;;;;13.24;67.41;101405.59;5019385;28;9705;-65
2022/05/12 01:48:55;;;;;;;;;1.00;1.00;;;;;13.22;67.43;101394.13;5035223;28;9528;-66
2022/05/12 01:51:21;;;;;;;;;1.00;1.00;;;;;13.20;67.15;101402.44;5041793;28;9605;-65
2022/05/12 01:53:48;;;;;;;;;2.00;0.00;;;;;13.19;67.41;101406.16;5039187;28;9840;-65
2022/05/12 01:56:14;;;;;;;;;1.50;1.00;;;;;13.20;67.32;101413.25;5042252;28;10354;-64
2022/05/12 01:58:41;;;;;;;;;1.00;1.00;;;;;13.17;67.62;101408.25;5031781;28;9754;-66
2022/05/12 02:01:07;;;;;;;;;1.00;1.00;;;;;13.17;67.68;101416.34;5031367;28;9783;-64
2022/05/12 02:03:34;;;;;;;;;0.00;0.00;;;;;13.17;67.53;101407.41;5021908;28;9697;-64
2022/05/12 02:06:01;;;;;;;;;1.75;1.00;;;;;13.15;67.47;101414.88;5038311;28;9955;-64
2022/05/12 02:08:28;;;;;;;;;1.00;1.00;;;;;13.13;67.68;101422.34;5031624;28;9720;-64
2022/05/12 02:10:54;;;;;;;;;0.25;0.25;;;;;13.13;68.09;101434.00;5031477;28;9597;-66
2022/05/12 02:13:25;;;;;;;;;2.00;1.00;;;;;13.08;67.88;101429.19;5030144;28;9674;-65
2022/05/12 02:15:54;;;;;;;;;1.50;1.50;;;;;13.07;68.38;101430.19;5029594;28;9792;-65
2022/05/12 02:18:21;;;;;;;;;0.75;0.75;;;;;13.06;68.01;101428.53;5031182;28;9742;-64
2022/05/12 02:20:49;;;;;;;;;1.00;1.00;;;;;13.05;68.66;101428.75;5043235;28;9768;-64
2022/05/12 02:23:16;;;;;;;;;2.75;0.75;;;;;13.03;68.73;101434.31;5050147;28;9840;-65
2022/05/12 02:25:42;;;;;;;;;2.75;1.00;;;;;13.06;68.60;101443.94;5012595;28;9847;-65
2022/05/12 02:28:09;;;;;;;;;2.00;2.00;;;;;13.04;68.30;101446.81;5026723;28;9838;-65
2022/05/12 02:30:35;;;;;;;;;1.50;1.50;;;;;13.01;68.42;101451.78;5031441;28;9764;-65
2022/05/12 02:33:03;;;;;;;;;1.00;1.00;;;;;13.01;68.54;101454.50;5036065;28;9761;-65
2022/05/12 02:35:30;;;;;;;;;1.75;1.75;;;;;13.01;68.93;101457.19;5043152;28;9810;-65
2022/05/12 02:37:57;;;;;;;;;2.00;1.00;;;;;12.99;68.40;101456.53;5031203;28;9893;-65
2022/05/12 02:40:25;;;;;;;;;2.00;2.00;;;;;13.00;68.78;101463.59;5029361;28;9684;-65
2022/05/12 02:42:52;;;;;;;;;2.00;2.00;;;;;13.00;68.62;101459.03;5022475;28;9838;-65
2022/05/12 02:45:19;;;;;;;;;2.25;2.25;;;;;13.02;68.56;101477.78;5017641;28;9851;-64
2022/05/12 02:47:45;;;;;;;;;4.50;1.75;;;;;13.00;68.99;101471.72;5031717;28;9840;-65
2022/05/12 02:50:14;;;;;;;;;3.50;3.50;;;;;12.98;68.98;101474.63;5042717;28;9913;-65
2022/05/12 02:52:41;;;;;;;;;3.00;3.00;;;;;12.97;68.92;101474.81;5031342;28;9842;-64
2022/05/12 02:55:08;;;;;;;;;1.00;1.00;;;;;12.98;68.82;101484.59;5028645;28;9746;-65
2022/05/12 02:57:35;;;;;;;;;7.00;2.00;;;;;12.97;68.71;101483.78;5036996;28;9743;-65
2022/05/12 03:00:07;;;;;;;;;3.00;3.00;;;;;12.97;68.65;101491.03;5044938;28;10005;-65
2022/05/12 03:02:35;;;;;;;;;2.00;2.00;;;;;12.95;68.71;101490.38;5040541;28;9895;-64
2022/05/12 03:05:02;;;;;;;;;2.50;2.00;;;;;12.94;68.95;101494.13;5045214;28;9903;-65
2022/05/12 03:07:29;;;;;;;;;5.00;3.00;;;;;12.91;69.13;101500.75;5035072;28;9902;-63
2022/05/12 03:09:55;;;;;;;;;2.00;2.00;;;;;12.91;68.97;101491.81;5028507;28;11019;-64
2022/05/12 03:12:22;;;;;;;;;2.25;2.00;;;;;12.90;69.18;101492.84;5030656;28;10538;-65
2022/05/12 03:14:48;;;;;;;;;2.75;1.75;;;;;12.89;68.82;101499.28;5027669;28;10046;-66
2022/05/12 03:17:15;;;;;;;;;3.25;3.25;;;;;12.88;68.97;101501.13;5040122;28;9978;-65
2022/05/12 03:19:41;;;;;;;;;2.25;2.25;;;;;12.86;68.87;101506.72;5050468;28;9999;-65
2022/05/12 03:22:08;;;;;;;;;4.50;2.25;;;;;12.82;68.69;101513.56;5039078;28;10008;-65
2022/05/12 03:24:34;;;;;;;;;7.75;3.25;;;;;12.79;69.10;101511.22;5010899;28;10005;-65
2022/05/12 03:27:01;;;;;;;;;3.50;3.50;;;;;12.76;68.73;101502.66;5021732;28;9993;-65
2022/05/12 03:29:27;;;;;;;;;5.75;4.75;;;;;12.75;69.17;101509.09;5027022;28;9904;-66
2022/05/12 03:31:54;;;;;;;;;4.00;4.00;;;;;12.73;69.35;101512.00;5041920;28;10050;-65
2022/05/12 03:34:20;;;;;;;;;7.00;5.00;;;;;12.71;69.22;101519.44;5046910;28;10009;-65
2022/05/12 03:36:47;;;;;;;;;8.00;5.50;;;;;12.70;69.34;101523.19;5032513;28;9981;-66
2022/05/12 03:39:13;;;;;;;;;3.50;3.50;;;;;12.69;69.17;101526.09;5051985;28;9919;-64
2022/05/12 03:41:40;;;;;;;;;6.00;6.00;;;;;12.68;69.34;101522.56;5029174;28;10094;-66
2022/05/12 03:46:51;;;;;;;;;10.00;5.00;;;;;12.66;69.17;101531.88;5029373;28;10149;-66
2022/05/12 03:49:18;;;;;;;;;5.75;3.50;;;;;12.61;69.03;101537.84;5038774;28;10146;-66
2022/05/12 03:51:45;;;;;;;;;5.25;5.25;;;;;12.61;69.63;101529.75;5021480;28;9998;-65
2022/05/12 03:54:12;;;;;;;;;4.00;4.00;;;;;12.61;69.10;101535.97;5030050;28;10092;-65
2022/05/12 03:56:38;;;;;;;;;4.75;4.25;;;;;12.62;68.98;101531.41;5029962;28;9884;-64
2022/05/12 03:59:06;;;;;;;;;3.00;3.00;;;;;12.62;68.94;101534.13;5029827;28;9906;-64
2022/05/12 04:01:33;;;;;;;;;5.00;4.00;;;;;12.62;69.15;101536.81;5039946;28;10046;-64
2022/05/12 04:03:59;;;;;;;;;2.50;2.50;;;;;12.61;69.16;101543.25;5034423;28;10108;-64
2022/05/12 04:06:26;;;;;;;;;3.00;3.00;;;;;12.59;69.13;101537.19;5031172;28;9946;-65
2022/05/12 04:08:53;;;;;;;;;6.50;5.00;;;;;12.59;69.38;101540.72;5029865;28;10742;-64
2022/05/12 04:11:20;;;;;;;;;6.00;3.75;;;;;12.59;69.23;101548.00;5043334;22;10196;-65
2022/05/12 04:13:47;;;;;;;;;3.25;3.25;;;;;12.59;68.97;101545.28;5009552;28;10096;-63
2022/05/12 04:16:15;;;;;;;;;3.50;3.50;;;;;12.60;69.17;101547.00;5005435;28;9928;-66
2022/05/12 04:18:42;;;;;;;;;3.00;2.50;;;;;12.60;68.76;101555.94;5012509;28;9926;-63
2022/05/12 04:21:08;;;;;;;;;2.75;2.75;;;;;12.59;69.11;101558.78;4999176;28;10949;-64
2022/05/12 04:23:35;;;;;;;;;2.00;2.00;;;;;12.58;68.83;101557.13;4994146;28;10094;-64
2022/05/12 04:26:02;;;;;;;;;4.50;4.50;;;;;12.54;69.38;101561.25;4997297;28;10723;-64
2022/05/12 04:28:29;;;;;;;;;5.00;5.00;;;;;12.50;69.07;101573.44;5013196;28;10896;-65
2022/05/12 04:30:56;;;;;;;;;6.75;6.25;;;;;12.47;69.64;101573.81;5004249;28;10341;-63
2022/05/12 04:36:08;;;;;;;;;6.00;5.00;;;;;12.46;69.79;101572.97;5013076;28;10196;-63
2022/05/12 04:38:34;;;;;;;;;6.00;5.00;;;;;12.49;69.64;101587.97;5013075;28;10815;-66
2022/05/12 04:41:01;;;;;;;;;4.00;4.00;;;;;12.51;69.93;101583.22;5013430;28;10093;-63
2022/05/12 04:43:27;;;;;;;;;4.75;4.25;;;;;12.83;69.68;101598.13;5010624;28;10239;-63
2022/05/12 04:45:54;;;;;;;;;7.25;6.00;;;;;13.15;68.98;101598.69;5009785;28;10155;-62
2022/05/12 04:48:23;;;;;;;;;9.75;6.00;;;;;13.40;67.64;101601.88;5011260;28;9913;-63
2022/05/12 04:50:49;;;;;;;;;2.50;2.50;;;;;13.67;67.17;101613.75;5005399;28;10081;-64
2022/05/12 04:53:16;;;;;;;;;5.00;5.00;;;;;13.77;66.58;101611.53;5013054;28;9934;-62
2022/05/12 04:55:44;;;;;;;;;5.75;4.00;;;;;13.70;66.05;101619.63;5012757;28;10008;-64
2022/05/12 04:58:11;;;;;;;;;4.00;4.00;;;;;13.56;66.19;101620.53;5012512;28;9925;-65
2022/05/12 05:00:40;;;;;;;;;8.75;3.50;;;;;13.44;66.64;101622.91;5012893;28;9742;-64
2022/05/12 05:03:09;;;;;;;;;3.25;3.00;;;;;13.36;67.24;101626.59;5008046;28;9852;-65
2022/05/12 05:05:43;;;;;;;;;3.50;3.50;;;;;13.30;67.53;101630.09;5005008;28;9913;-64
2022/05/12 05:08:19;;;;;;;;;2.00;1.00;;;;;13.29;67.58;101628.41;5012612;28;9840;-64
2022/05/12 05:10:46;;;;;;;;;6.25;5.00;;;;;13.24;67.65;101624.59;5012381;28;10561;-65
2022/05/12 05:13:13;;;;;;;;;5.00;3.25;;;;;13.19;67.88;101629.72;5012610;28;9857;-62
2022/05/12 05:15:39;;;;;;;;;4.25;4.25;;;;;13.16;67.89;101630.94;5012312;28;10105;-65
2022/05/12 05:18:14;;;;;;;;;4.75;4.25;;;;;13.13;68.14;101622.41;5010334;28;10543;-64
2022/05/12 05:20:42;;;;;;;;;6.25;4.00;;;;;13.14;68.63;101629.47;5004533;28;9848;-64
2022/05/12 05:23:08;;;;;;;;;3.75;3.75;;;;;13.18;68.25;101637.00;5011773;28;9991;-63
2022/05/12 05:25:35;;;;;;;;;6.00;6.00;;;;;13.21;68.37;101639.31;5004243;28;9859;-63
2022/05/12 05:28:02;;;;;;;;;4.50;4.50;;;;;13.24;68.38;101638.13;5018308;28;9865;-62
2022/05/12 05:30:28;;;;;;;;;5.25;4.50;;;;;13.29;68.41;101638.41;5006036;28;10653;-64
2022/05/12 05:32:55;;;;;;;;;5.75;5.50;;;;;13.30;68.56;101640.91;5011229;28;9969;-65
2022/05/12 05:35:22;;;;;;;;;3.00;3.00;;;;;13.31;68.19;101653.38;4997628;28;9852;-64
2022/05/12 05:37:50;;;;;;;;;4.50;4.50;;;;;13.33;68.42;101647.78;5009532;28;9946;-65
2022/05/12 05:40:19;;;;;;;;;3.50;3.50;;;;;13.36;68.10;101656.34;4994343;28;9762;-64
2022/05/12 05:42:46;;;;;;;;;3.00;3.00;;;;;13.36;68.13;101661.75;4992385;28;9863;-63
2022/05/12 05:45:16;;;;;;;;;7.00;7.00;;;;;13.41;68.60;101668.44;5005681;28;9954;-64
2022/05/12 05:47:47;;;;;;;;;5.50;3.00;;;;;13.46;68.63;101666.03;5010911;28;9922;-64
2022/05/12 05:50:18;;;;;;;;;6.00;6.00;;;;;13.56;68.45;101680.88;5011546;28;9857;-65
2022/05/12 05:55:30;;;;;;;;;5.75;5.25;;;;;13.83;68.15;101691.97;4992295;28;9914;-63
2022/05/12 05:58:01;;;;;;;;;6.25;6.00;;;;;13.99;67.89;101688.97;5008000;28;9762;-65
2022/05/12 06:00:28;;;;;;;;;6.75;3.50;;;;;14.13;67.35;101700.72;4995601;28;9775;-64
2022/05/12 06:02:55;;;;;;;;;4.00;4.00;;;;;14.27;67.03;101705.22;5011366;28;9676;-65
2022/05/12 06:05:21;;;;;;;;;2.50;2.50;;;;;14.38;66.40;101714.69;5006387;28;9545;-65
2022/05/12 06:07:48;;;;;;;;;5.50;5.50;;;;;14.46;65.76;101710.94;4998785;28;9586;-65
2022/05/12 06:10:16;;;;;;;;;2.75;2.25;;;;;14.55;65.31;101715.22;4992759;28;9767;-65
2022/05/12 06:12:42;;;;;;;;;2.33;2.00;;;;;14.65;65.50;101715.69;5010824;28;9445;-64
2022/05/12 06:15:10;;;;;;;;;4.50;4.00;;;;;14.69;64.88;101724.25;5005565;28;9402;-64
2022/05/12 06:17:38;;;;;;;;;0.00;0.00;;;;;14.75;64.64;101729.72;5005142;28;9471;-65
2022/05/12 06:20:06;;;;;;;;;3.00;3.00;;;;;14.81;64.29;101720.78;5001497;28;9307;-65
2022/05/12 06:22:33;;;;;;;;;3.00;3.00;;;;;14.85;64.11;101732.06;5009490;28;9313;-65
2022/05/12 06:24:59;;;;;;;;;6.00;4.50;;;;;14.87;63.36;101732.72;5011214;28;9405;-65
2022/05/12 06:27:26;;;;;;;;;3.00;3.00;;;;;14.91;63.03;101738.53;5006267;28;9460;-64
2022/05/12 06:29:52;;;;;;;;;6.00;2.67;;;;;14.91;62.90;101738.53;4998274;28;10140;-64
2022/05/12 06:32:19;;;;;;;;;3.00;2.00;;;;;14.89;62.88;101737.94;4989771;28;9380;-65
2022/05/12 06:34:46;;;;;;;;;6.00;5.00;;;;;14.89;62.77;101740.63;4990666;28;9410;-65
2022/05/12 06:37:13;;;;;;;;;2.33;2.00;;;;;14.93;62.65;101750.03;5003384;28;9306;-64
2022/05/12 06:39:40;;;;;;;;;5.50;5.00;;;;;14.90;62.42;101745.00;5010724;28;9301;-64
2022/05/12 06:42:07;;;;;;;;;2.00;2.00;;;;;14.86;61.67;101760.00;5010881;28;9467;-62
2022/05/12 06:44:42;;;;;;;;;2.00;2.00;;;;;14.79;61.75;101760.81;5011761;28;9394;-63
2022/05/12 06:47:11;;;;;;;;;5.00;5.00;;;;;14.80;62.07;101761.66;5012334;28;9227;-61
2022/05/12 06:49:38;;;;;;;;;4.67;2.00;;;;;14.83;62.33;101770.22;5012177;28;9478;-62
2022/05/12 06:52:05;;;;;;;;;4.00;3.00;;;;;14.88;62.21;101769.63;5011256;28;9449;-64
2022/05/12 06:54:33;;;;;;;;;2.00;2.00;;;;;14.89;62.12;101765.03;5010861;28;9382;-63
2022/05/12 06:56:59;;;;;;;;;1.33;1.33;;;;;14.91;61.75;101771.09;5010202;28;9216;-65
2022/05/12 06:59:26;;;;;;;;;2.67;2.67;;;;;14.87;61.86;101772.50;5010694;28;9282;-65
2022/05/12 07:01:52;;;;;;;;;1.33;1.33;;;;;14.79;61.15;101777.09;5008876;28;9907;-66
2022/05/12 07:04:20;;;;;;;;;3.00;2.00;;;;;14.79;61.58;101781.69;5010925;28;9236;-62
2022/05/12 07:06:47;;;;;;;;;2.00;2.00;;;;;14.78;61.53;101788.94;5008981;28;9188;-64
2022/05/12 07:09:14;;;;;;;;;2.67;2.00;;;;;14.78;61.22;101791.66;5011097;28;9318;-64
2022/05/12 07:11:42;;;;;;;;;2.00;2.00;;;;;14.76;61.40;101782.91;5010797;28;9209;-64
2022/05/12 07:14:08;;;;;;;;;3.67;2.00;;;;;14.82;61.14;101792.94;5001376;28;9078;-64
2022/05/12 07:16:35;;;;;;;;;2.33;2.00;;;;;14.88;60.78;101788.59;4998507;28;9299;-65
2022/05/12 07:19:02;;;;;;;;;1.33;1.33;;;;;14.92;60.71;101797.19;5010733;28;9142;-64
2022/05/12 07:26:58;;;;;;;;;2.00;1.33;;;;;14.90;60.21;101804.66;5010216;28;9255;-64
2022/05/12 07:29:27;;;;;;;;;2.00;2.00;;;;;14.90;59.58;101812.78;4994186;28;9294;-64
2022/05/12 07:31:54;;;;;;;;;2.67;1.33;;;;;14.93;59.86;101809.69;4995378;28;9156;-65
2022/05/12 07:34:21;;;;;;;;;5.00;1.00;;;;;14.94;59.05;101812.19;5010771;28;9941;-64
2022/05/12 07:36:51;;;;;;;;;1.00;1.00;;;;;14.97;58.41;101811.78;5010200;28;10055;-64
2022/05/12 07:39:22;;;;;;;;;1.67;1.67;;;;;15.04;58.64;101817.28;5010463;28;9227;-64
2022/05/12 07:41:49;;;;;;;;;1.00;1.00;;;;;15.01;58.11;101817.66;5009870;28;9263;-64
2022/05/12 07:44:18;;;;;;;;;1.33;1.33;;;;;15.00;58.02;101822.25;5010601;28;9060;-64
2022/05/12 07:46:47;;;;;;;;;6.00;2.00;;;;;15.04;58.18;101819.97;5009651;28;9201;-65
2022/05/12 07:49:14;;;;;;;;;1.00;1.00;;;;;15.09;58.20;101815.63;5012934;28;9241;-64
2022/05/12 07:51:47;;;;;;;;;2.67;1.67;;;;;15.10;57.56;101813.75;5012595;28;9239;-64
2022/05/12 07:54:14;;;;;;;;;1.00;1.00;;;;;15.13;57.54;101820.66;5014292;28;9383;-65
2022/05/12 07:56:40;;;;;;;;;3.00;3.00;;;;;15.11;57.12;101820.88;5013637;28;9250;-63
2022/05/12 07:59:07;;;;;;;;;1.00;1.00;;;;;15.15;56.44;101827.56;5009781;28;10012;-64
2022/05/12 08:01:33;;;;;;;;;1.00;1.00;;;;;15.19;56.51;101830.69;5002288;28;9139;-64
2022/05/12 08:04:00;;;;;;;;;1.00;1.00;;;;;15.24;56.19;101833.66;4995085;28;9273;-66
2022/05/12 08:06:27;;;;;;;;;1.00;1.00;;;;;15.31;56.27;101835.38;5001167;28;9162;-65
2022/05/12 08:08:54;;;;;;;;;1.00;1.00;;;;;15.34;55.67;101834.09;5014102;28;9139;-63
2022/05/12 08:11:20;;;;;;;;;1.00;1.00;;;;;15.38;55.88;101831.84;5013716;28;9299;-65
2022/05/12 08:13:47;;;;;;;;;2.00;2.00;;;;;15.36;55.64;101836.63;5013952;28;9777;-66
2022/05/12 08:16:17;;;;;;;;;2.00;1.00;;;;;15.41;56.03;101834.97;5013015;28;9225;-65
2022/05/12 08:18:45;;;;;;;;;2.00;1.67;;;;;15.48;55.56;101837.72;5013722;28;9243;-65
2022/05/12 08:21:13;;;;;;;;;1.00;1.00;;;;;15.49;55.12;101832.09;5013666;28;9175;-64
2022/05/12 08:23:40;;;;;;;;;2.00;2.00;;;;;15.52;55.40;101831.69;5013757;28;9249;-64
2022/05/12 08:26:08;;;;;;;;;2.33;2.00;;;;;15.53;54.84;101829.81;5013453;28;9301;-64
2022/05/12 08:28:35;;;;;;;;;2.00;0.67;;;;;15.53;54.35;101832.53;5012902;28;9255;-64
2022/05/12 08:31:04;;;;;;;;;1.00;1.00;;;;;15.59;54.75;101842.56;5013526;28;9326;-65
2022/05/12 08:33:36;;;;;;;;;1.00;0.67;;;;;15.66;53.75;101838.03;5013817;28;9290;-66
2022/05/12 08:36:03;;;;;;;;;1.67;1.67;;;;;15.66;53.60;101837.19;5013143;28;9074;-65
2022/05/12 08:38:29;;;;;;;;;2.00;1.00;;;;;15.68;53.54;101833.25;5013460;28;9151;-66
2022/05/12 08:41:23;;;;;;;;;2.00;1.00;;;;;15.71;52.76;101837.41;5013020;28;9212;-66
2022/05/12 08:43:53;;;;;;;;;1.67;1.67;;;;;15.74;53.40;101847.88;5013483;28;9070;-64
2022/05/12 08:46:23;;;;;;;;;1.33;1.33;;;;;15.78;52.46;101844.53;5013560;28;9045;-65
2022/05/12 08:49:02;;;;;;;;;0.67;0.67;;;;;15.82;51.74;101859.38;5013370;28;8905;-65
2022/05/12 08:51:35;;;;;;;;;1.00;1.00;;;;;15.89;52.14;101853.16;5013276;28;8951;-65
2022/05/12 08:54:11;;;;;;;;;1.00;1.00;;;;;15.88;50.88;101860.47;5013209;28;8993;-64
2022/05/12 08:56:38;;;;;;;;;2.00;0.33;;;;;15.89;50.53;101859.41;5001937;28;9052;-65
2022/05/12 08:59:05;;;;;;;;;0.00;0.00;;;;;15.99;50.42;101859.00;5013247;28;8988;-65
2022/05/12 09:01:40;;;;;;;;;2.25;1.00;;;;;16.04;50.49;101862.81;5012348;28;8902;-65
2022/05/12 09:04:46;;;;;;;;;1.00;1.00;;;;;16.18;49.71;101862.81;5013190;28;8861;-65
2022/05/12 09:07:18;;;;;;;;;0.33;0.33;;;;;16.23;49.43;101865.75;5012737;28;9705;-65
2022/05/12 09:10:01;;;;;;;;;1.00;1.00;;;;;16.32;49.28;101865.31;5012262;28;8987;-65
2022/05/12 09:12:31;;;;;;;;;0.00;0.00;;;;;16.38;48.60;101860.97;5012940;28;9755;-65
2022/05/12 09:15:04;;;;;;;;;0.00;0.00;;;;;16.47;48.20;101856.16;5013111;28;9075;-65
2022/05/12 09:17:39;;;;;;;;;0.00;0.00;;;;;16.60;48.64;101864.31;5012678;28;9522;-65
2022/05/12 09:20:09;;;;;;;;;1.00;1.00;;;;;16.60;47.76;101861.59;5012539;28;8918;-66
2022/05/12 09:22:37;;;;;;;;;1.00;1.00;;;;;16.67;47.34;101857.00;5012529;28;8923;-64
2022/05/12 09:25:06;;;;;;;;;0.00;0.00;;;;;16.67;47.85;101862.44;5009720;28;8924;-65
2022/05/12 09:27:36;;;;;;;;;1.00;1.00;;;;;16.66;48.07;101854.50;5012228;28;8839;-65
2022/05/12 09:30:11;;;;;;;;;1.00;1.00;;;;;16.62;47.98;101864.94;5011569;28;9558;-65
2022/05/12 09:32:39;;;;;;;;;0.00;0.00;;;;;16.68;46.75;101860.53;5007515;28;8849;-65
2022/05/12 09:35:08;;;;;;;;;1.00;1.00;;;;;16.79;47.35;101865.38;5012247;28;8851;-65
2022/05/12 09:37:40;;;;;;;;;0.00;0.00;;;;;16.87;47.89;101867.06;4997033;28;8868;-65
2022/05/12 09:40:26;;;;;;;;;1.00;1.00;;;;;16.87;47.59;101861.63;4992704;28;8912;-64
2022/05/12 09:42:56;;;;;;;;;0.50;0.50;;;;;16.94;47.80;101855.13;4994104;28;8810;-65
2022/05/12 09:45:31;;;;;;;;;0.75;0.75;;;;;17.04;47.88;101854.66;4998145;28;8838;-65
2022/05/12 09:48:34;;;;;;;;;0.75;0.50;;;;;17.11;46.39;101852.78;5012270;28;8857;-65
2022/05/12 09:51:27;;;;;;;;;2.00;0.00;;;;;17.20;46.72;101864.28;4989716;28;8858;-65
2022/05/12 09:54:15;;;;;;;;;1.00;0.00;;;;;17.25;45.67;101867.19;5011053;28;8869;-65
2022/05/12 09:56:46;;;;;;;;;1.50;1.50;;;;;17.25;45.65;101865.28;5011924;28;8925;-67
2022/05/12 09:59:15;;;;;;;;;1.75;1.00;;;;;17.32;45.66;101869.88;5012436;28;8849;-66
2022/05/12 10:01:55;;;;;;;;;1.00;0.00;;;;;17.37;45.06;101865.47;5012401;28;8859;-66
2022/05/12 10:10:05;;;;;;;;;2.00;2.00;;;;;17.54;45.45;101869.41;5011832;28;8889;-65
2022/05/12 10:12:46;;;;;;;;;0.50;0.50;;;;;17.54;44.84;101865.81;5011014;28;8831;-65
2022/05/12 10:15:46;;;;;;;;;0.75;0.75;;;;;17.69;45.44;101869.13;5011466;28;8905;-64
2022/05/12 10:18:26;;;;;;;;;1.00;1.00;;;;;17.73;44.23;101873.06;5010606;28;8835;-65
2022/05/12 10:20:57;;;;;;;;;2.50;1.25;;;;;17.60;44.09;101875.03;4991984;28;8924;-65
2022/05/12 10:23:50;;;;;;;;;0.75;0.75;;;;;17.46;43.87;101866.06;5006976;28;8831;-64
2022/05/12 10:26:31;;;;;;;;;0.25;0.00;;;;;17.44;43.80;101876.34;4993106;28;8950;-64
2022/05/12 10:29:24;;;;;;;;;1.00;1.00;;;;;17.48;43.55;101875.69;5010083;28;8823;-64
2022/05/12 10:32:01;;;;;;;;;0.00;0.00;;;;;17.50;43.77;101876.34;5007301;28;8880;-66
2022/05/12 10:34:51;;;;;;;;;0.50;0.25;;;;;17.67;43.89;101871.22;5006476;28;8831;-65
2022/05/12 10:37:43;;;;;;;;;1.00;0.00;;;;;17.75;43.36;101876.47;5004694;28;8827;-64
2022/05/12 10:40:27;;;;;;;;;1.00;1.00;;;;;17.76;42.20;101871.84;5011078;28;8985;-65
2022/05/12 10:43:21;;;;;;;;;1.25;0.75;;;;;17.75;41.82;101878.34;5011054;28;9506;-65
2022/05/12 10:46:11;;;;;;;;;1.00;1.00;;;;;17.71;41.62;101877.91;5009449;28;8823;-65
2022/05/12 10:48:58;;;;;;;;;1.00;0.25;;;;;17.73;41.70;101872.25;5009373;28;8940;-65
2022/05/12 10:51:36;;;;;;;;;1.00;1.00;;;;;17.67;42.06;101875.84;5010724;28;9716;-64
2022/05/12 10:54:30;;;;;;;;;2.00;1.00;;;;;17.71;41.57;101864.31;5009441;28;8835;-64
2022/05/12 10:57:22;;;;;;;;;1.00;0.00;;;;;17.75;41.15;101859.28;5010230;28;8847;-65
2022/05/12 11:00:12;;;;;;;;;0.50;0.50;;;;;17.86;41.15;101864.03;5011183;28;8870;-64
2022/05/12 11:02:47;;;;;;;;;0.00;0.00;;;;;17.92;40.27;101865.06;5002686;28;8842;-66
2022/05/12 11:05:24;;;;;;;;;0.00;0.00;;;;;17.89;40.00;101862.78;5003062;28;8865;-66
2022/05/12 11:08:09;;;;;;;;;0.25;0.00;;;;;17.76;40.11;101872.69;5010686;28;8896;-67
2022/05/12 11:10:44;;;;;;;;;0.50;0.50;;;;;17.60;40.37;101867.69;5010178;28;8851;-66
2022/05/12 11:13:22;;;;;;;;;0.00;0.00;;;;;17.57;40.35;101868.13;5010726;28;8827;-65
2022/05/12 11:16:05;;;;;;;;;0.00;0.00;;;;;17.63;40.48;101866.44;5010583;28;8831;-65
2022/05/12 11:18:44;;;;;;;;;1.00;1.00;;;;;17.55;40.87;101857.47;5009532;28;8842;-67
2022/05/12 11:21:17;;;;;;;;;1.50;0.50;;;;;17.47;41.17;101848.69;5010083;28;8831;-65
2022/05/12 11:23:50;;;;;;;;;1.00;1.00;;;;;17.56;40.98;101861.00;5010162;28;8831;-65
2022/05/12 11:26:33;;;;;;;;;1.25;1.25;;;;;17.76;41.22;101859.06;5009693;28;8843;-65
2022/05/12 11:29:44;;;;;;;;;0.00;0.00;;;;;17.88;39.81;101861.94;4997541;28;8822;-65
2022/05/12 11:32:44;;;;;;;;;0.00;0.00;;;;;17.90;39.43;101870.72;5003581;28;8831;-64
2022/05/12 11:35:20;;;;;;;;;0.00;0.00;;;;;18.01;39.38;101861.03;5010641;28;8885;-64
2022/05/12 11:37:53;;;;;;;;;0.50;0.50;;;;;18.17;39.83;101857.78;5010439;28;8842;-67
2022/05/12 11:40:40;;;;;;;;;0.75;0.75;;;;;18.28;39.21;101859.81;5010762;28;8819;-66
2022/05/12 11:46:33;;;;;;;;;0.25;0.25;;;;;18.36;37.94;101863.31;5010012;28;8823;-64
2022/05/12 11:49:04;;;;;;;;;0.25;0.00;;;;;18.31;38.53;101857.69;5009279;28;8842;-64
2022/05/12 11:52:00;;;;;;;;;0.00;0.00;;;;;18.28;38.24;101864.41;5010197;28;8871;-65
2022/05/12 11:54:39;;;;;;;;;1.25;0.75;;;;;18.33;38.23;101858.31;5010214;28;8858;-65
2022/05/12 11:57:32;;;;;;;;;0.00;0.00;;;;;18.34;38.34;101862.69;5009401;28;8835;-64
2022/05/12 12:00:00;;;;;;;;;0.00;0.00;;;;;18.43;37.77;101873.13;5010548;28;8819;-65
2022/05/12 12:02:45;;;;;;;;;2.00;1.00;;;;;18.52;37.62;101869.06;5009931;28;8851;-65
2022/05/12 12:05:36;;;;;;;;;1.00;1.00;;;;;18.56;37.91;101861.28;4998220;28;8821;-65
2022/05/12 12:08:07;;;;;;;;;0.50;0.50;;;;;18.53;38.35;101853.53;5003333;28;8849;-65
2022/05/12 12:10:43;;;;;;;;;1.00;1.00;;;;;18.41;38.41;101861.59;4990497;28;8852;-66